This is the latest recevied weather packets stored in our database for station/object IV3CLI-10. If no packets are shown the sender has not sent any weather packets the latest 10 day(s).
| Time | Temp. | Humidity | Pressure | Rain* | Wind** | Luminosity | Snow |
|---|---|---|---|---|---|---|---|
| 1777604094 | 6.11° C | 100% | 1027.2 hPa | - | - | - | - |
| 1777599587 | 7.78° C | 79% | 1027.4 hPa | - | - | - | - |
| 1777597787 | 10° C | 56% | 1027.2 hPa | - | - | - | - |
| 1777594187 | 11.11° C | 53% | 1027.1 hPa | - | - | - | - |
| 1777592386 | 10.56° C | 62% | 1027.1 hPa | - | - | - | - |
| 1777590586 | 10° C | 87% | 1027.3 hPa | - | - | - | - |
| 1777590519 | 10° C | 86% | 1027.4 hPa | - | - | - | - |
| 1777589621 | 10° C | 99% | 1027.5 hPa | - | - | - | - |
| 1777588722 | 10.56° C | 92% | 1027.4 hPa | - | - | - | - |
| 1777587819 | 11.11° C | 88% | 1027.2 hPa | - | - | - | - |
| 1777583318 | 11.67° C | 76% | 1026.6 hPa | - | - | - | - |
| 1777582418 | 11.67° C | 76% | 1026.5 hPa | - | - | - | - |
| 1777581518 | 12.22° C | 73% | 1026.3 hPa | - | - | - | - |
| 1777579714 | 12.22° C | 68% | 1026 hPa | - | - | - | - |
| 1777578814 | 12.22° C | 73% | 1025.7 hPa | - | - | - | - |
| 1777577914 | 12.78° C | 71% | 1025.4 hPa | - | - | - | - |
| 1777577014 | 12.78° C | 68% | 1025.1 hPa | - | - | - | - |
| 1777576114 | 13.33° C | 63% | 1024.9 hPa | - | - | - | - |
| 1777575214 | 13.33° C | 55% | 1024.7 hPa | - | - | - | - |
| 1777574314 | 13.89° C | 47% | 1024.4 hPa | - | - | - | - |
| 1777573414 | 13.89° C | 46% | 1024 hPa | - | - | - | - |
| 1777572514 | 14.44° C | 40% | 1023.8 hPa | - | - | - | - |
| 1777571614 | 16.11° C | 35% | 1023.7 hPa | - | - | - | - |
| 1777570713 | 17.22° C | 33% | 1023.5 hPa | - | - | - | - |
| 1777569813 | 17.78° C | 32% | 1023.3 hPa | - | - | - | - |
* Rain since midnight (hover to see other rain measurements)
** Current wind speed in m/s (hover to see current wind gust speed)